sensor_id;sensor_type;location;lat;lon;timestamp;P1;durP1;ratioP1;P2;durP2;ratioP2
31978;SDS011;18502;43.574;1.276;2023-07-31T00:00:28;10.80;;;4.55;;
31978;SDS011;18502;43.574;1.276;2023-07-31T00:02:54;9.75;;;4.18;;
31978;SDS011;18502;43.574;1.276;2023-07-31T00:05:20;15.48;;;4.80;;
31978;SDS011;18502;43.574;1.276;2023-07-31T00:07:45;4.80;;;3.72;;
31978;SDS011;18502;43.574;1.276;2023-07-31T00:10:11;9.73;;;4.47;;
31978;SDS011;18502;43.574;1.276;2023-07-31T00:12:41;8.57;;;4.03;;
31978;SDS011;18502;43.574;1.276;2023-07-31T00:15:08;9.48;;;3.92;;
31978;SDS011;18502;43.574;1.276;2023-07-31T00:17:34;8.30;;;4.32;;
31978;SDS011;18502;43.574;1.276;2023-07-31T00:20:01;8.20;;;3.70;;
31978;SDS011;18502;43.574;1.276;2023-07-31T00:22:27;8.40;;;4.07;;
31978;SDS011;18502;43.574;1.276;2023-07-31T00:24:53;8.95;;;4.35;;
31978;SDS011;18502;43.574;1.276;2023-07-31T00:27:18;10.68;;;4.75;;
31978;SDS011;18502;43.574;1.276;2023-07-31T00:29:44;7.18;;;4.18;;
31978;SDS011;18502;43.574;1.276;2023-07-31T00:32:09;9.35;;;4.65;;
31978;SDS011;18502;43.574;1.276;2023-07-31T00:34:35;10.80;;;4.45;;
31978;SDS011;18502;43.574;1.276;2023-07-31T00:37:01;7.47;;;3.95;;
31978;SDS011;18502;43.574;1.276;2023-07-31T00:39:26;11.38;;;4.63;;
31978;SDS011;18502;43.574;1.276;2023-07-31T00:41:52;8.85;;;3.90;;
31978;SDS011;18502;43.574;1.276;2023-07-31T00:44:17;10.90;;;4.65;;
31978;SDS011;18502;43.574;1.276;2023-07-31T00:46:43;8.80;;;4.10;;
31978;SDS011;18502;43.574;1.276;2023-07-31T00:49:09;8.60;;;4.43;;
31978;SDS011;18502;43.574;1.276;2023-07-31T00:51:36;7.93;;;5.03;;
31978;SDS011;18502;43.574;1.276;2023-07-31T00:54:02;11.82;;;4.85;;
31978;SDS011;18502;43.574;1.276;2023-07-31T00:56:28;9.27;;;4.97;;
31978;SDS011;18502;43.574;1.276;2023-07-31T00:58:54;7.38;;;4.20;;
31978;SDS011;18502;43.574;1.276;2023-07-31T01:01:20;10.23;;;4.65;;
31978;SDS011;18502;43.574;1.276;2023-07-31T01:03:47;7.70;;;4.30;;
31978;SDS011;18502;43.574;1.276;2023-07-31T01:06:18;9.73;;;4.75;;
31978;SDS011;18502;43.574;1.276;2023-07-31T01:09:05;10.30;;;4.85;;
31978;SDS011;18502;43.574;1.276;2023-07-31T01:11:41;9.20;;;4.88;;
31978;SDS011;18502;43.574;1.276;2023-07-31T01:14:12;13.48;;;5.28;;
31978;SDS011;18502;43.574;1.276;2023-07-31T01:16:37;12.35;;;4.90;;
31978;SDS011;18502;43.574;1.276;2023-07-31T01:19:03;8.45;;;4.88;;
31978;SDS011;18502;43.574;1.276;2023-07-31T01:26:30;11.80;;;5.65;;
31978;SDS011;18502;43.574;1.276;2023-07-31T01:31:44;8.35;;;4.43;;
31978;SDS011;18502;43.574;1.276;2023-07-31T01:34:13;11.63;;;5.00;;
31978;SDS011;18502;43.574;1.276;2023-07-31T01:36:42;14.40;;;5.23;;
31978;SDS011;18502;43.574;1.276;2023-07-31T01:39:08;10.15;;;4.65;;
31978;SDS011;18502;43.574;1.276;2023-07-31T01:41:34;9.52;;;4.53;;
31978;SDS011;18502;43.574;1.276;2023-07-31T01:44:00;9.80;;;4.88;;
31978;SDS011;18502;43.574;1.276;2023-07-31T01:46:25;11.50;;;5.38;;
31978;SDS011;18502;43.574;1.276;2023-07-31T01:48:51;15.10;;;5.40;;
31978;SDS011;18502;43.574;1.276;2023-07-31T01:51:17;10.40;;;5.10;;
31978;SDS011;18502;43.574;1.276;2023-07-31T01:53:42;11.82;;;5.05;;
31978;SDS011;18502;43.574;1.276;2023-07-31T01:56:08;9.32;;;4.88;;
31978;SDS011;18502;43.574;1.276;2023-07-31T01:58:34;11.45;;;5.18;;
31978;SDS011;18502;43.574;1.276;2023-07-31T02:00:59;9.20;;;5.57;;
31978;SDS011;18502;43.574;1.276;2023-07-31T02:03:25;13.80;;;5.68;;
31978;SDS011;18502;43.574;1.276;2023-07-31T02:05:51;10.95;;;5.30;;
31978;SDS011;18502;43.574;1.276;2023-07-31T02:08:16;11.35;;;5.65;;
31978;SDS011;18502;43.574;1.276;2023-07-31T02:10:42;13.93;;;5.53;;
31978;SDS011;18502;43.574;1.276;2023-07-31T02:13:08;12.50;;;4.88;;
31978;SDS011;18502;43.574;1.276;2023-07-31T02:15:34;13.38;;;5.20;;
31978;SDS011;18502;43.574;1.276;2023-07-31T02:18:00;9.32;;;4.65;;
31978;SDS011;18502;43.574;1.276;2023-07-31T02:20:25;9.55;;;4.68;;
31978;SDS011;18502;43.574;1.276;2023-07-31T02:22:51;15.48;;;5.65;;
31978;SDS011;18502;43.574;1.276;2023-07-31T02:25:16;12.55;;;5.05;;
31978;SDS011;18502;43.574;1.276;2023-07-31T02:27:42;11.20;;;4.88;;
31978;SDS011;18502;43.574;1.276;2023-07-31T02:30:08;10.27;;;4.93;;
31978;SDS011;18502;43.574;1.276;2023-07-31T02:32:34;9.15;;;4.90;;
31978;SDS011;18502;43.574;1.276;2023-07-31T02:35:00;10.50;;;4.55;;
31978;SDS011;18502;43.574;1.276;2023-07-31T02:37:25;10.50;;;4.70;;
31978;SDS011;18502;43.574;1.276;2023-07-31T02:39:53;8.10;;;4.13;;
31978;SDS011;18502;43.574;1.276;2023-07-31T02:42:19;10.23;;;4.55;;
31978;SDS011;18502;43.574;1.276;2023-07-31T02:44:45;12.07;;;5.15;;
31978;SDS011;18502;43.574;1.276;2023-07-31T02:47:10;9.65;;;4.85;;
31978;SDS011;18502;43.574;1.276;2023-07-31T02:49:36;7.97;;;4.60;;
31978;SDS011;18502;43.574;1.276;2023-07-31T02:52:01;7.88;;;4.32;;
31978;SDS011;18502;43.574;1.276;2023-07-31T02:54:27;11.05;;;4.40;;
31978;SDS011;18502;43.574;1.276;2023-07-31T02:56:53;8.23;;;4.88;;
31978;SDS011;18502;43.574;1.276;2023-07-31T02:59:19;9.88;;;5.22;;
31978;SDS011;18502;43.574;1.276;2023-07-31T03:01:45;10.13;;;4.57;;
31978;SDS011;18502;43.574;1.276;2023-07-31T03:04:11;10.18;;;4.90;;
31978;SDS011;18502;43.574;1.276;2023-07-31T03:06:37;11.48;;;4.80;;
31978;SDS011;18502;43.574;1.276;2023-07-31T03:09:02;10.27;;;4.68;;
31978;SDS011;18502;43.574;1.276;2023-07-31T03:11:28;10.02;;;4.85;;
31978;SDS011;18502;43.574;1.276;2023-07-31T03:13:53;9.63;;;4.35;;
31978;SDS011;18502;43.574;1.276;2023-07-31T03:16:19;7.35;;;4.20;;
31978;SDS011;18502;43.574;1.276;2023-07-31T03:18:45;11.00;;;4.53;;
31978;SDS011;18502;43.574;1.276;2023-07-31T03:21:12;8.60;;;4.53;;
31978;SDS011;18502;43.574;1.276;2023-07-31T03:23:37;8.05;;;4.05;;
31978;SDS011;18502;43.574;1.276;2023-07-31T03:26:06;8.90;;;4.40;;
31978;SDS011;18502;43.574;1.276;2023-07-31T03:28:33;11.50;;;4.82;;
31978;SDS011;18502;43.574;1.276;2023-07-31T03:30:59;8.38;;;4.45;;
31978;SDS011;18502;43.574;1.276;2023-07-31T03:33:25;9.27;;;4.45;;
31978;SDS011;18502;43.574;1.276;2023-07-31T03:35:51;6.78;;;4.35;;
31978;SDS011;18502;43.574;1.276;2023-07-31T03:38:17;13.35;;;5.25;;
31978;SDS011;18502;43.574;1.276;2023-07-31T03:40:43;10.82;;;3.80;;
31978;SDS011;18502;43.574;1.276;2023-07-31T03:43:08;15.35;;;5.07;;
31978;SDS011;18502;43.574;1.276;2023-07-31T03:45:34;11.27;;;5.03;;
31978;SDS011;18502;43.574;1.276;2023-07-31T03:48:00;9.88;;;4.85;;
31978;SDS011;18502;43.574;1.276;2023-07-31T03:50:26;10.63;;;4.55;;
31978;SDS011;18502;43.574;1.276;2023-07-31T03:52:52;11.10;;;4.40;;
31978;SDS011;18502;43.574;1.276;2023-07-31T03:55:18;9.07;;;5.15;;
31978;SDS011;18502;43.574;1.276;2023-07-31T03:57:43;9.50;;;4.47;;
31978;SDS011;18502;43.574;1.276;2023-07-31T04:00:09;14.43;;;4.90;;
31978;SDS011;18502;43.574;1.276;2023-07-31T04:02:35;11.25;;;4.40;;
31978;SDS011;18502;43.574;1.276;2023-07-31T04:05:01;12.70;;;4.82;;
31978;SDS011;18502;43.574;1.276;2023-07-31T04:07:27;9.40;;;4.70;;
31978;SDS011;18502;43.574;1.276;2023-07-31T04:09:52;12.43;;;4.32;;
31978;SDS011;18502;43.574;1.276;2023-07-31T04:12:18;8.85;;;4.28;;
31978;SDS011;18502;43.574;1.276;2023-07-31T04:14:43;14.00;;;5.00;;
31978;SDS011;18502;43.574;1.276;2023-07-31T04:17:09;10.35;;;4.35;;
31978;SDS011;18502;43.574;1.276;2023-07-31T04:19:35;9.45;;;4.53;;
31978;SDS011;18502;43.574;1.276;2023-07-31T04:22:00;8.75;;;4.57;;
31978;SDS011;18502;43.574;1.276;2023-07-31T04:24:26;10.50;;;4.30;;
31978;SDS011;18502;43.574;1.276;2023-07-31T04:26:52;7.90;;;3.85;;
31978;SDS011;18502;43.574;1.276;2023-07-31T04:29:18;12.73;;;5.05;;
31978;SDS011;18502;43.574;1.276;2023-07-31T04:31:44;10.13;;;4.65;;
31978;SDS011;18502;43.574;1.276;2023-07-31T04:34:10;10.75;;;4.38;;
31978;SDS011;18502;43.574;1.276;2023-07-31T04:36:36;11.07;;;4.25;;
31978;SDS011;18502;43.574;1.276;2023-07-31T04:39:02;6.97;;;3.95;;
31978;SDS011;18502;43.574;1.276;2023-07-31T04:41:28;13.25;;;4.28;;
31978;SDS011;18502;43.574;1.276;2023-07-31T04:43:53;9.00;;;4.50;;
31978;SDS011;18502;43.574;1.276;2023-07-31T04:46:19;10.95;;;4.60;;
31978;SDS011;18502;43.574;1.276;2023-07-31T04:48:45;9.98;;;4.80;;
31978;SDS011;18502;43.574;1.276;2023-07-31T04:51:10;8.95;;;4.10;;
31978;SDS011;18502;43.574;1.276;2023-07-31T04:53:36;12.38;;;4.60;;
31978;SDS011;18502;43.574;1.276;2023-07-31T04:56:02;10.05;;;4.50;;
31978;SDS011;18502;43.574;1.276;2023-07-31T04:58:28;10.63;;;4.63;;
31978;SDS011;18502;43.574;1.276;2023-07-31T05:00:54;11.63;;;3.95;;
31978;SDS011;18502;43.574;1.276;2023-07-31T05:03:19;11.10;;;4.50;;
31978;SDS011;18502;43.574;1.276;2023-07-31T05:05:45;10.93;;;4.68;;
31978;SDS011;18502;43.574;1.276;2023-07-31T05:08:11;12.10;;;4.60;;
31978;SDS011;18502;43.574;1.276;2023-07-31T05:10:37;8.93;;;4.47;;
31978;SDS011;18502;43.574;1.276;2023-07-31T05:13:02;10.70;;;4.40;;
31978;SDS011;18502;43.574;1.276;2023-07-31T05:15:28;11.02;;;5.38;;
31978;SDS011;18502;43.574;1.276;2023-07-31T05:17:54;13.02;;;5.75;;
31978;SDS011;18502;43.574;1.276;2023-07-31T05:20:20;8.13;;;4.88;;
31978;SDS011;18502;43.574;1.276;2023-07-31T05:22:46;15.10;;;4.93;;
31978;SDS011;18502;43.574;1.276;2023-07-31T05:25:11;14.10;;;4.55;;
31978;SDS011;18502;43.574;1.276;2023-07-31T05:27:37;14.65;;;5.07;;
31978;SDS011;18502;43.574;1.276;2023-07-31T05:30:03;13.82;;;5.07;;
31978;SDS011;18502;43.574;1.276;2023-07-31T05:32:29;9.70;;;4.47;;
31978;SDS011;18502;43.574;1.276;2023-07-31T05:34:55;8.40;;;4.72;;
31978;SDS011;18502;43.574;1.276;2023-07-31T05:37:21;12.77;;;5.15;;
31978;SDS011;18502;43.574;1.276;2023-07-31T05:39:46;13.20;;;5.10;;
31978;SDS011;18502;43.574;1.276;2023-07-31T05:42:12;12.55;;;5.22;;
31978;SDS011;18502;43.574;1.276;2023-07-31T05:44:38;10.45;;;3.95;;
31978;SDS011;18502;43.574;1.276;2023-07-31T05:47:03;11.32;;;5.05;;
31978;SDS011;18502;43.574;1.276;2023-07-31T05:49:29;8.02;;;3.95;;
31978;SDS011;18502;43.574;1.276;2023-07-31T05:51:55;8.20;;;4.18;;
31978;SDS011;18502;43.574;1.276;2023-07-31T05:54:21;14.35;;;4.60;;
31978;SDS011;18502;43.574;1.276;2023-07-31T05:56:46;11.18;;;4.70;;
31978;SDS011;18502;43.574;1.276;2023-07-31T05:59:12;12.02;;;4.63;;
31978;SDS011;18502;43.574;1.276;2023-07-31T06:01:38;12.77;;;4.43;;
31978;SDS011;18502;43.574;1.276;2023-07-31T06:04:04;12.82;;;4.68;;
31978;SDS011;18502;43.574;1.276;2023-07-31T06:06:30;9.60;;;4.03;;
31978;SDS011;18502;43.574;1.276;2023-07-31T06:08:55;12.82;;;4.20;;
31978;SDS011;18502;43.574;1.276;2023-07-31T06:11:21;14.57;;;5.35;;
31978;SDS011;18502;43.574;1.276;2023-07-31T06:13:47;9.52;;;4.22;;
31978;SDS011;18502;43.574;1.276;2023-07-31T06:16:14;12.32;;;4.57;;
31978;SDS011;18502;43.574;1.276;2023-07-31T06:18:40;12.32;;;4.43;;
31978;SDS011;18502;43.574;1.276;2023-07-31T06:21:06;13.40;;;4.97;;
31978;SDS011;18502;43.574;1.276;2023-07-31T06:23:33;11.60;;;4.85;;
31978;SDS011;18502;43.574;1.276;2023-07-31T06:25:58;13.13;;;4.78;;
31978;SDS011;18502;43.574;1.276;2023-07-31T06:28:27;12.70;;;4.60;;
31978;SDS011;18502;43.574;1.276;2023-07-31T06:30:57;13.93;;;4.45;;
31978;SDS011;18502;43.574;1.276;2023-07-31T06:33:23;10.43;;;3.60;;
31978;SDS011;18502;43.574;1.276;2023-07-31T06:35:49;13.07;;;4.68;;
31978;SDS011;18502;43.574;1.276;2023-07-31T06:38:15;14.50;;;5.03;;
31978;SDS011;18502;43.574;1.276;2023-07-31T06:40:44;15.45;;;4.72;;
31978;SDS011;18502;43.574;1.276;2023-07-31T06:43:09;22.52;;;4.32;;
31978;SDS011;18502;43.574;1.276;2023-07-31T06:45:35;22.30;;;4.93;;
31978;SDS011;18502;43.574;1.276;2023-07-31T06:48:01;18.48;;;4.63;;
31978;SDS011;18502;43.574;1.276;2023-07-31T06:50:29;9.60;;;4.10;;
31978;SDS011;18502;43.574;1.276;2023-07-31T06:52:55;10.35;;;4.38;;
31978;SDS011;18502;43.574;1.276;2023-07-31T06:55:20;9.55;;;4.03;;
31978;SDS011;18502;43.574;1.276;2023-07-31T06:57:47;12.48;;;4.38;;
31978;SDS011;18502;43.574;1.276;2023-07-31T07:00:14;13.02;;;4.22;;
31978;SDS011;18502;43.574;1.276;2023-07-31T07:02:40;13.27;;;4.47;;
31978;SDS011;18502;43.574;1.276;2023-07-31T07:05:06;14.82;;;4.65;;
31978;SDS011;18502;43.574;1.276;2023-07-31T07:07:33;10.80;;;3.47;;
31978;SDS011;18502;43.574;1.276;2023-07-31T07:09:58;12.23;;;4.00;;
31978;SDS011;18502;43.574;1.276;2023-07-31T07:12:32;11.52;;;3.65;;
31978;SDS011;18502;43.574;1.276;2023-07-31T07:14:58;14.68;;;4.07;;
31978;SDS011;18502;43.574;1.276;2023-07-31T07:17:25;11.60;;;3.88;;
31978;SDS011;18502;43.574;1.276;2023-07-31T07:19:51;9.05;;;3.70;;
31978;SDS011;18502;43.574;1.276;2023-07-31T07:22:17;11.15;;;4.20;;
31978;SDS011;18502;43.574;1.276;2023-07-31T07:24:43;13.45;;;3.78;;
31978;SDS011;18502;43.574;1.276;2023-07-31T07:27:08;14.25;;;4.32;;
31978;SDS011;18502;43.574;1.276;2023-07-31T07:29:34;10.65;;;4.22;;
31978;SDS011;18502;43.574;1.276;2023-07-31T07:32:00;17.10;;;4.97;;
31978;SDS011;18502;43.574;1.276;2023-07-31T07:34:26;12.43;;;4.07;;
31978;SDS011;18502;43.574;1.276;2023-07-31T07:36:52;10.45;;;3.60;;
31978;SDS011;18502;43.574;1.276;2023-07-31T07:39:18;10.70;;;4.15;;
31978;SDS011;18502;43.574;1.276;2023-07-31T07:41:45;10.50;;;4.30;;
31978;SDS011;18502;43.574;1.276;2023-07-31T07:44:11;9.75;;;3.33;;
31978;SDS011;18502;43.574;1.276;2023-07-31T07:46:38;12.07;;;3.35;;
31978;SDS011;18502;43.574;1.276;2023-07-31T07:49:03;10.30;;;3.72;;
31978;SDS011;18502;43.574;1.276;2023-07-31T07:51:29;14.35;;;3.75;;
31978;SDS011;18502;43.574;1.276;2023-07-31T07:53:56;11.10;;;4.00;;
31978;SDS011;18502;43.574;1.276;2023-07-31T07:56:23;14.35;;;4.38;;
31978;SDS011;18502;43.574;1.276;2023-07-31T07:58:49;9.48;;;3.92;;
31978;SDS011;18502;43.574;1.276;2023-07-31T08:01:15;12.57;;;5.03;;
31978;SDS011;18502;43.574;1.276;2023-07-31T08:03:41;14.38;;;4.45;;
31978;SDS011;18502;43.574;1.276;2023-07-31T08:06:06;9.45;;;3.53;;
31978;SDS011;18502;43.574;1.276;2023-07-31T08:08:34;13.10;;;4.00;;
31978;SDS011;18502;43.574;1.276;2023-07-31T08:11:00;11.45;;;3.88;;
31978;SDS011;18502;43.574;1.276;2023-07-31T08:13:26;10.45;;;3.58;;
31978;SDS011;18502;43.574;1.276;2023-07-31T08:15:52;9.90;;;3.20;;
31978;SDS011;18502;43.574;1.276;2023-07-31T08:18:18;11.77;;;4.32;;
31978;SDS011;18502;43.574;1.276;2023-07-31T08:20:44;9.02;;;3.53;;
31978;SDS011;18502;43.574;1.276;2023-07-31T08:23:09;10.20;;;4.18;;
31978;SDS011;18502;43.574;1.276;2023-07-31T08:25:35;8.95;;;3.30;;
31978;SDS011;18502;43.574;1.276;2023-07-31T08:28:02;10.90;;;3.83;;
31978;SDS011;18502;43.574;1.276;2023-07-31T08:30:28;8.73;;;3.65;;
31978;SDS011;18502;43.574;1.276;2023-07-31T08:32:54;10.88;;;3.70;;
31978;SDS011;18502;43.574;1.276;2023-07-31T08:35:19;7.72;;;3.67;;
31978;SDS011;18502;43.574;1.276;2023-07-31T08:37:45;14.65;;;4.15;;
31978;SDS011;18502;43.574;1.276;2023-07-31T08:40:11;11.43;;;3.78;;
31978;SDS011;18502;43.574;1.276;2023-07-31T08:42:43;6.00;;;2.45;;
31978;SDS011;18502;43.574;1.276;2023-07-31T08:45:10;8.75;;;3.22;;
31978;SDS011;18502;43.574;1.276;2023-07-31T08:47:43;6.93;;;3.25;;
31978;SDS011;18502;43.574;1.276;2023-07-31T08:50:12;8.55;;;3.35;;
31978;SDS011;18502;43.574;1.276;2023-07-31T08:52:38;27.65;;;5.05;;
31978;SDS011;18502;43.574;1.276;2023-07-31T08:55:04;7.30;;;2.70;;
31978;SDS011;18502;43.574;1.276;2023-07-31T08:57:31;7.35;;;2.90;;
31978;SDS011;18502;43.574;1.276;2023-07-31T08:59:58;10.75;;;2.58;;
31978;SDS011;18502;43.574;1.276;2023-07-31T09:02:24;4.45;;;2.22;;
31978;SDS011;18502;43.574;1.276;2023-07-31T09:04:59;5.38;;;2.08;;
31978;SDS011;18502;43.574;1.276;2023-07-31T09:07:26;9.05;;;2.40;;
31978;SDS011;18502;43.574;1.276;2023-07-31T09:09:52;5.18;;;1.90;;
31978;SDS011;18502;43.574;1.276;2023-07-31T09:12:18;8.13;;;2.70;;
31978;SDS011;18502;43.574;1.276;2023-07-31T09:14:45;5.80;;;2.75;;
31978;SDS011;18502;43.574;1.276;2023-07-31T09:17:12;6.32;;;2.10;;
31978;SDS011;18502;43.574;1.276;2023-07-31T09:19:37;3.90;;;1.85;;
31978;SDS011;18502;43.574;1.276;2023-07-31T09:22:03;5.50;;;2.28;;
31978;SDS011;18502;43.574;1.276;2023-07-31T09:24:31;3.75;;;2.42;;
31978;SDS011;18502;43.574;1.276;2023-07-31T09:26:59;4.32;;;1.75;;
31978;SDS011;18502;43.574;1.276;2023-07-31T09:29:26;4.50;;;1.95;;
31978;SDS011;18502;43.574;1.276;2023-07-31T09:31:53;3.65;;;1.88;;
31978;SDS011;18502;43.574;1.276;2023-07-31T09:34:20;2.88;;;1.60;;
31978;SDS011;18502;43.574;1.276;2023-07-31T09:36:52;4.00;;;1.92;;
31978;SDS011;18502;43.574;1.276;2023-07-31T09:39:18;4.20;;;1.90;;
31978;SDS011;18502;43.574;1.276;2023-07-31T09:41:53;5.60;;;1.92;;
31978;SDS011;18502;43.574;1.276;2023-07-31T09:44:20;3.63;;;1.98;;
31978;SDS011;18502;43.574;1.276;2023-07-31T09:46:46;5.90;;;1.90;;
31978;SDS011;18502;43.574;1.276;2023-07-31T09:49:13;5.07;;;2.05;;
31978;SDS011;18502;43.574;1.276;2023-07-31T09:51:40;4.50;;;2.28;;
31978;SDS011;18502;43.574;1.276;2023-07-31T09:54:14;3.70;;;2.25;;
31978;SDS011;18502;43.574;1.276;2023-07-31T09:56:42;4.95;;;1.90;;
31978;SDS011;18502;43.574;1.276;2023-07-31T09:59:10;4.47;;;2.08;;
31978;SDS011;18502;43.574;1.276;2023-07-31T10:01:38;4.78;;;2.25;;
31978;SDS011;18502;43.574;1.276;2023-07-31T10:04:06;4.90;;;2.08;;
31978;SDS011;18502;43.574;1.276;2023-07-31T10:06:34;4.53;;;2.20;;
31978;SDS011;18502;43.574;1.276;2023-07-31T10:09:01;5.00;;;2.20;;
31978;SDS011;18502;43.574;1.276;2023-07-31T10:11:28;3.97;;;2.30;;
31978;SDS011;18502;43.574;1.276;2023-07-31T10:13:59;5.10;;;2.30;;
31978;SDS011;18502;43.574;1.276;2023-07-31T10:16:25;6.70;;;2.80;;
31978;SDS011;18502;43.574;1.276;2023-07-31T10:18:51;7.57;;;2.33;;
31978;SDS011;18502;43.574;1.276;2023-07-31T10:21:17;6.13;;;2.50;;
31978;SDS011;18502;43.574;1.276;2023-07-31T10:23:43;6.57;;;2.92;;
31978;SDS011;18502;43.574;1.276;2023-07-31T10:26:09;7.07;;;2.25;;
31978;SDS011;18502;43.574;1.276;2023-07-31T10:28:36;5.90;;;2.22;;
31978;SDS011;18502;43.574;1.276;2023-07-31T10:31:03;5.68;;;2.20;;
31978;SDS011;18502;43.574;1.276;2023-07-31T10:33:29;4.05;;;1.90;;
31978;SDS011;18502;43.574;1.276;2023-07-31T10:36:17;6.57;;;2.33;;
31978;SDS011;18502;43.574;1.276;2023-07-31T10:38:43;11.98;;;2.75;;
31978;SDS011;18502;43.574;1.276;2023-07-31T10:41:09;4.63;;;2.05;;
31978;SDS011;18502;43.574;1.276;2023-07-31T10:43:36;4.57;;;2.45;;
31978;SDS011;18502;43.574;1.276;2023-07-31T10:46:08;5.65;;;2.22;;
31978;SDS011;18502;43.574;1.276;2023-07-31T10:48:38;5.07;;;2.67;;
31978;SDS011;18502;43.574;1.276;2023-07-31T10:51:07;5.90;;;2.20;;
31978;SDS011;18502;43.574;1.276;2023-07-31T10:53:34;4.35;;;1.98;;
31978;SDS011;18502;43.574;1.276;2023-07-31T10:56:01;6.93;;;2.58;;
31978;SDS011;18502;43.574;1.276;2023-07-31T10:58:28;6.20;;;2.00;;
31978;SDS011;18502;43.574;1.276;2023-07-31T11:00:57;6.70;;;1.92;;
31978;SDS011;18502;43.574;1.276;2023-07-31T11:06:14;5.53;;;2.25;;
31978;SDS011;18502;43.574;1.276;2023-07-31T11:08:41;4.25;;;2.10;;
31978;SDS011;18502;43.574;1.276;2023-07-31T11:11:09;6.15;;;2.50;;
31978;SDS011;18502;43.574;1.276;2023-07-31T11:16:10;5.18;;;2.60;;
31978;SDS011;18502;43.574;1.276;2023-07-31T11:18:40;7.88;;;2.55;;
31978;SDS011;18502;43.574;1.276;2023-07-31T11:21:08;7.93;;;2.95;;
31978;SDS011;18502;43.574;1.276;2023-07-31T11:23:38;4.10;;;2.05;;
31978;SDS011;18502;43.574;1.276;2023-07-31T11:26:04;6.65;;;2.60;;
31978;SDS011;18502;43.574;1.276;2023-07-31T11:28:32;6.47;;;2.60;;
31978;SDS011;18502;43.574;1.276;2023-07-31T11:31:01;4.25;;;1.95;;
31978;SDS011;18502;43.574;1.276;2023-07-31T11:33:27;6.00;;;2.78;;
31978;SDS011;18502;43.574;1.276;2023-07-31T11:35:53;5.95;;;2.50;;
31978;SDS011;18502;43.574;1.276;2023-07-31T11:40:51;8.63;;;2.65;;
31978;SDS011;18502;43.574;1.276;2023-07-31T11:43:33;4.35;;;2.60;;
31978;SDS011;18502;43.574;1.276;2023-07-31T11:46:01;7.05;;;2.67;;
31978;SDS011;18502;43.574;1.276;2023-07-31T11:48:33;7.40;;;2.50;;
31978;SDS011;18502;43.574;1.276;2023-07-31T11:51:02;5.78;;;2.30;;
31978;SDS011;18502;43.574;1.276;2023-07-31T11:53:36;5.28;;;2.30;;
31978;SDS011;18502;43.574;1.276;2023-07-31T11:56:08;4.72;;;2.40;;
31978;SDS011;18502;43.574;1.276;2023-07-31T11:58:36;3.60;;;2.33;;
31978;SDS011;18502;43.574;1.276;2023-07-31T12:01:04;6.78;;;2.72;;
31978;SDS011;18502;43.574;1.276;2023-07-31T12:03:30;5.95;;;2.53;;
31978;SDS011;18502;43.574;1.276;2023-07-31T12:05:57;4.40;;;2.15;;
31978;SDS011;18502;43.574;1.276;2023-07-31T12:08:24;5.63;;;2.80;;
31978;SDS011;18502;43.574;1.276;2023-07-31T12:10:51;5.45;;;2.60;;
31978;SDS011;18502;43.574;1.276;2023-07-31T12:13:24;4.70;;;2.85;;
31978;SDS011;18502;43.574;1.276;2023-07-31T12:15:54;4.57;;;2.60;;
31978;SDS011;18502;43.574;1.276;2023-07-31T12:18:22;3.60;;;2.47;;
31978;SDS011;18502;43.574;1.276;2023-07-31T12:20:54;6.03;;;2.47;;
31978;SDS011;18502;43.574;1.276;2023-07-31T12:23:22;2.83;;;2.22;;
31978;SDS011;18502;43.574;1.276;2023-07-31T12:28:43;2.90;;;2.33;;
31978;SDS011;18502;43.574;1.276;2023-07-31T12:31:18;4.85;;;2.83;;
31978;SDS011;18502;43.574;1.276;2023-07-31T12:33:46;3.83;;;2.50;;
31978;SDS011;18502;43.574;1.276;2023-07-31T12:36:21;3.90;;;2.30;;
31978;SDS011;18502;43.574;1.276;2023-07-31T12:38:49;4.10;;;2.58;;
31978;SDS011;18502;43.574;1.276;2023-07-31T12:41:16;3.55;;;2.17;;
31978;SDS011;18502;43.574;1.276;2023-07-31T12:43:42;6.00;;;2.58;;
31978;SDS011;18502;43.574;1.276;2023-07-31T12:46:09;3.10;;;2.08;;
31978;SDS011;18502;43.574;1.276;2023-07-31T12:48:35;3.70;;;2.60;;
31978;SDS011;18502;43.574;1.276;2023-07-31T12:51:02;3.58;;;2.13;;
31978;SDS011;18502;43.574;1.276;2023-07-31T12:53:28;6.60;;;2.33;;
31978;SDS011;18502;43.574;1.276;2023-07-31T12:55:54;6.53;;;2.92;;
31978;SDS011;18502;43.574;1.276;2023-07-31T12:58:20;4.55;;;2.33;;
31978;SDS011;18502;43.574;1.276;2023-07-31T13:00:46;2.78;;;2.33;;
31978;SDS011;18502;43.574;1.276;2023-07-31T13:03:11;4.93;;;2.90;;
31978;SDS011;18502;43.574;1.276;2023-07-31T13:05:37;5.03;;;2.58;;
31978;SDS011;18502;43.574;1.276;2023-07-31T13:08:03;4.97;;;2.20;;
31978;SDS011;18502;43.574;1.276;2023-07-31T13:10:28;3.92;;;2.17;;
31978;SDS011;18502;43.574;1.276;2023-07-31T13:12:55;4.65;;;2.72;;
31978;SDS011;18502;43.574;1.276;2023-07-31T13:15:21;5.63;;;2.50;;
31978;SDS011;18502;43.574;1.276;2023-07-31T13:17:47;3.15;;;2.55;;
31978;SDS011;18502;43.574;1.276;2023-07-31T13:20:12;6.43;;;2.65;;
31978;SDS011;18502;43.574;1.276;2023-07-31T13:22:38;5.72;;;2.92;;
31978;SDS011;18502;43.574;1.276;2023-07-31T13:25:04;3.83;;;2.22;;
31978;SDS011;18502;43.574;1.276;2023-07-31T13:27:30;7.38;;;2.97;;
31978;SDS011;18502;43.574;1.276;2023-07-31T13:29:56;4.55;;;2.75;;
31978;SDS011;18502;43.574;1.276;2023-07-31T13:32:22;3.28;;;2.42;;
31978;SDS011;18502;43.574;1.276;2023-07-31T13:34:48;4.38;;;2.72;;
31978;SDS011;18502;43.574;1.276;2023-07-31T13:37:14;6.78;;;2.45;;
31978;SDS011;18502;43.574;1.276;2023-07-31T13:39:40;3.65;;;2.53;;
31978;SDS011;18502;43.574;1.276;2023-07-31T13:42:07;3.35;;;2.47;;
31978;SDS011;18502;43.574;1.276;2023-07-31T13:44:36;4.70;;;2.80;;
31978;SDS011;18502;43.574;1.276;2023-07-31T13:47:05;4.28;;;2.40;;
31978;SDS011;18502;43.574;1.276;2023-07-31T13:49:31;4.22;;;2.80;;
31978;SDS011;18502;43.574;1.276;2023-07-31T13:51:57;4.57;;;3.25;;
31978;SDS011;18502;43.574;1.276;2023-07-31T13:54:23;6.95;;;2.80;;
31978;SDS011;18502;43.574;1.276;2023-07-31T13:56:50;7.00;;;3.35;;
31978;SDS011;18502;43.574;1.276;2023-07-31T13:59:16;5.80;;;2.63;;
31978;SDS011;18502;43.574;1.276;2023-07-31T14:01:43;5.22;;;2.63;;
31978;SDS011;18502;43.574;1.276;2023-07-31T14:04:09;4.78;;;2.85;;
31978;SDS011;18502;43.574;1.276;2023-07-31T14:06:35;10.88;;;3.65;;
31978;SDS011;18502;43.574;1.276;2023-07-31T14:09:01;7.10;;;2.40;;
31978;SDS011;18502;43.574;1.276;2023-07-31T14:11:27;4.20;;;2.78;;
31978;SDS011;18502;43.574;1.276;2023-07-31T14:13:53;7.00;;;2.83;;
31978;SDS011;18502;43.574;1.276;2023-07-31T14:16:19;4.70;;;2.60;;
31978;SDS011;18502;43.574;1.276;2023-07-31T14:18:44;4.22;;;2.55;;
31978;SDS011;18502;43.574;1.276;2023-07-31T14:21:12;4.85;;;2.72;;
31978;SDS011;18502;43.574;1.276;2023-07-31T14:23:39;7.22;;;2.70;;
31978;SDS011;18502;43.574;1.276;2023-07-31T14:26:04;7.30;;;3.47;;
31978;SDS011;18502;43.574;1.276;2023-07-31T14:28:30;8.38;;;2.53;;
31978;SDS011;18502;43.574;1.276;2023-07-31T14:30:56;5.82;;;2.97;;
31978;SDS011;18502;43.574;1.276;2023-07-31T14:33:22;4.35;;;2.53;;
31978;SDS011;18502;43.574;1.276;2023-07-31T14:35:47;3.95;;;2.30;;
31978;SDS011;18502;43.574;1.276;2023-07-31T14:38:13;3.53;;;2.83;;
31978;SDS011;18502;43.574;1.276;2023-07-31T14:40:38;5.88;;;2.80;;
31978;SDS011;18502;43.574;1.276;2023-07-31T14:43:04;3.00;;;2.70;;
31978;SDS011;18502;43.574;1.276;2023-07-31T14:45:30;3.58;;;2.70;;
31978;SDS011;18502;43.574;1.276;2023-07-31T14:47:56;3.13;;;2.42;;
31978;SDS011;18502;43.574;1.276;2023-07-31T14:50:21;4.38;;;2.78;;
31978;SDS011;18502;43.574;1.276;2023-07-31T14:52:48;5.20;;;2.80;;
31978;SDS011;18502;43.574;1.276;2023-07-31T14:55:14;3.85;;;2.83;;
31978;SDS011;18502;43.574;1.276;2023-07-31T14:57:40;3.92;;;2.38;;